Hankamer, TX (77560)

1:43 PM CDT on April 25, 2015 (GMT -0500)
Maley Woods | | Change Station
CLOSE
Current Station
Personal Weather Station
Location: Baytown, TX
Elevation: 30 ft
Nearby Weather Stations

Elev 30 ft 29.81 °N, 94.83 °W | Updated 7 seconds ago

Partly Cloudy
Partly Cloudy
77.0 °F
Feels Like 79 °F
N
7.6
Wind Variable Wind from SSE
Gusts 9.8 mph

Today
High -- | Low -- °F
--% Chance of Precip.
Yesterday
High -- | Low -- °F
Precip. -- in
6:41 AM 7:51 PM
Waxing Crescent, 48% visible
Pressure 29.76 in
Visibility 10.0 miles
Clouds Clear
Heat Index 79 °F
Dew Point 68 °F
Humidity 73%
Rainfall 0.14 in
Snow Depth Not available.
UV 9.0 out of 12
Pollen 7.10 out of 12
Air Quality Not available.
Flu Activity Local Activity
METAR KBMT 251835Z AUTO 18008KT 10SM CLR 26/21 A2976 RMK AO2 T02580205

More Conditions Fewer Conditions

Pressure 29.76 in
Visibility 10.0 miles
Clouds Clear
Heat Index 79 °F
Dew Point 68 °F
Humidity 73%
Rainfall 0.14 in
Snow Depth Not available.
UV 9.0 out of 12
Pollen 7.10 out of 12
Air Quality Not available.
Flu Activity Local Activity
METAR KBMT 251835Z AUTO 18008KT 10SM CLR 26/21 A2976 RMK AO2 T02580205

More Conditions Fewer Conditions

10-Day Weather Forecast

Almanac

Astronomy

Apr. 25, 2015 Rise Set
Actual Time
Civil Twilight
Nautical Twilight
Astronomical Twilight
Moon
Length of Visible Light
Length of Day
Tomorrow will be .
, % of the Moon is Illuminated

Today's Extremes

State Highs State Lows

Community

WunderPhotos

Upload Photos

1,816,767 photos uploaded!

WunderBlogs® & News

Nearby

Air Quality

  Air Quality AQ Index Pollutant
Not available.

Snow Depth

Station Depth Elevation

Earthquake Activity

City Distance Mag. Time & Date
Minimum magnitude displayed is 2.5.

Coastal Water Temperatures

Place Temperature

Stations

Nearby Weather Stations

Station Location Temp. Windchill Dew Point Humidity Wind Precip. Elev Updated Type